Time;durP1;ratioP1;P1;durP2;ratioP2;P2;SDS_P1;SDS_P2;PMS_P1;PMS_P2;Temp;Humidity;BMP_temperature;BMP_pressure;BME280_temperature;BME280_humidity;BME280_pressure;Samples;Min_cycle;Max_cycle;Signal;HPM_P1;HPM_P2
2023/12/06 00:01:51;;;;;;;10.60;6.70;;;;;;;9.19;64.85;98722.88;4956109;29;20031;-79
2023/12/06 00:04:16;;;;;;;11.20;7.10;;;;;;;9.21;64.85;98734.84;4941084;29;20046;-81
2023/12/06 00:06:42;;;;;;;12.38;7.10;;;;;;;9.22;64.93;98730.47;4956656;28;20031;-81
2023/12/06 00:09:07;;;;;;;10.05;6.38;;;;;;;9.20;64.84;98733.19;4956541;29;20035;-81
2023/12/06 00:11:33;;;;;;;10.77;6.57;;;;;;;9.21;65.08;98734.00;4972767;28;20039;-80
2023/12/06 00:13:58;;;;;;;11.15;6.60;;;;;;;9.18;64.57;98719.44;4958240;29;20042;-80
2023/12/06 00:16:24;;;;;;;9.23;5.32;;;;;;;9.20;64.89;98721.94;4972596;28;20036;-80
2023/12/06 00:18:49;;;;;;;11.43;5.60;;;;;;;9.20;64.88;98716.72;4956361;29;20035;-81
2023/12/06 00:21:15;;;;;;;8.30;5.53;;;;;;;9.21;64.79;98723.59;4956662;29;20039;-81
2023/12/06 00:23:40;;;;;;;8.55;5.28;;;;;;;9.20;64.58;98717.56;4940385;29;20579;-83
2023/12/06 00:26:06;;;;;;;7.50;4.82;;;;;;;9.19;64.74;98715.91;4940503;29;20094;-82
2023/12/06 00:28:31;;;;;;;8.60;4.97;;;;;;;9.21;64.60;98707.97;4972438;28;20075;-82
2023/12/06 00:30:57;;;;;;;6.60;4.45;;;;;;;9.20;64.50;98704.53;4956308;29;20042;-80
2023/12/06 00:33:22;;;;;;;6.68;4.40;;;;;;;9.19;64.54;98694.25;4940400;29;20466;-81
2023/12/06 00:35:48;;;;;;;8.07;4.30;;;;;;;9.16;64.71;98681.44;4940396;29;20047;-78
2023/12/06 00:38:14;;;;;;;6.45;4.43;;;;;;;9.20;64.57;98691.53;4955920;28;20434;-79
2023/12/06 00:40:40;;;;;;;9.15;4.30;;;;;;;9.16;64.63;98677.03;4955844;28;20031;-81
2023/12/06 00:43:06;;;;;;;7.80;3.78;;;;;;;9.19;64.68;98676.81;4956007;29;20098;-81
2023/12/06 00:45:31;;;;;;;5.05;3.75;;;;;;;9.15;64.58;98672.75;4940040;29;20051;-79
2023/12/06 00:47:57;;;;;;;8.90;4.07;;;;;;;9.18;64.72;98669.94;4972266;28;20031;-80
2023/12/06 00:50:22;;;;;;;6.78;3.60;;;;;;;9.18;64.67;98669.94;4956417;29;20619;-80
2023/12/06 00:52:48;;;;;;;5.63;3.78;;;;;;;9.19;64.86;98670.78;4955983;29;20039;-80
2023/12/06 00:55:13;;;;;;;7.05;4.05;;;;;;;9.18;64.73;98675.16;4971862;28;20426;-81
2023/12/06 00:57:39;;;;;;;5.95;3.30;;;;;;;9.18;64.42;98672.53;4940064;29;20039;-81
2023/12/06 01:00:06;;;;;;;7.43;3.65;;;;;;;9.18;64.46;98667.34;4972027;28;20038;-80
2023/12/06 01:02:31;;;;;;;7.40;3.55;;;;;;;9.15;64.66;98651.94;4971577;28;20127;-80
2023/12/06 01:04:57;;;;;;;7.70;3.83;;;;;;;9.16;64.74;98658.00;4971803;28;20446;-81
2023/12/06 01:07:22;;;;;;;8.27;3.47;;;;;;;9.20;64.73;98669.84;4955930;28;20039;-79
2023/12/06 01:09:48;;;;;;;6.28;3.33;;;;;;;9.21;64.58;98677.53;4955561;29;20612;-79
2023/12/06 01:12:13;;;;;;;6.70;3.53;;;;;;;9.21;64.79;98663.69;4956265;28;20039;-80
2023/12/06 01:14:39;;;;;;;5.15;3.40;;;;;;;9.17;64.72;98659.63;4955762;29;20086;-80
2023/12/06 01:17:05;;;;;;;5.43;3.63;;;;;;;9.18;64.77;98654.31;4939725;29;20487;-80
2023/12/06 01:19:30;;;;;;;5.72;3.40;;;;;;;9.19;64.82;98650.78;4955202;29;20019;-79
2023/12/06 01:21:56;;;;;;;5.45;3.42;;;;;;;9.17;64.64;98639.66;4939428;29;20114;-79
2023/12/06 01:24:21;;;;;;;5.43;3.20;;;;;;;9.17;64.50;98641.41;4955342;28;20062;-80
2023/12/06 01:26:47;;;;;;;4.65;3.30;;;;;;;9.21;64.57;98641.06;4939375;29;20039;-80
2023/12/06 01:29:12;;;;;;;4.93;3.00;;;;;;;9.19;64.78;98635.16;4956415;29;20034;-79
2023/12/06 01:31:38;;;;;;;5.50;3.08;;;;;;;9.20;64.59;98636.81;4956170;29;20043;-80
2023/12/06 01:34:05;;;;;;;4.57;3.10;;;;;;;9.20;64.69;98633.38;4956412;29;20027;-78
2023/12/06 01:36:32;;;;;;;5.10;3.10;;;;;;;9.21;64.62;98635.88;4970759;28;20038;-80
2023/12/06 01:38:57;;;;;;;7.18;3.45;;;;;;;9.20;64.41;98625.56;4938302;29;20023;-80
2023/12/06 01:41:22;;;;;;;4.60;3.10;;;;;;;9.17;64.45;98616.22;4922615;29;20051;-81
2023/12/06 01:43:48;;;;;;;4.78;3.20;;;;;;;9.21;64.44;98617.63;4938592;29;20042;-79
2023/12/06 01:46:13;;;;;;;7.80;3.63;;;;;;;9.20;64.41;98623.81;4923199;28;20497;-82
2023/12/06 01:48:39;;;;;;;6.35;2.65;;;;;;;9.17;64.52;98611.00;4938618;28;20031;-81
2023/12/06 01:51:05;;;;;;;4.88;3.05;;;;;;;9.21;64.50;98615.03;4954230;28;20156;-80
2023/12/06 01:53:31;;;;;;;5.25;3.10;;;;;;;9.21;64.71;98607.22;4922654;29;20043;-80
2023/12/06 01:55:56;;;;;;;5.30;3.58;;;;;;;9.20;64.42;98596.91;4939071;29;20406;-80
2023/12/06 01:58:22;;;;;;;5.85;3.05;;;;;;;9.22;64.62;98606.28;4923083;29;20515;-79
2023/12/06 02:00:47;;;;;;;6.63;3.30;;;;;;;9.21;64.64;98599.41;4939008;29;20126;-79
2023/12/06 02:03:14;;;;;;;5.75;3.28;;;;;;;9.20;64.31;98594.31;4939026;29;20027;-80
2023/12/06 02:05:39;;;;;;;6.32;3.30;;;;;;;9.19;64.69;98593.47;4923007;29;20410;-80
2023/12/06 02:08:05;;;;;;;4.85;2.95;;;;;;;9.20;64.65;98595.16;4922689;29;20035;-80
2023/12/06 02:10:30;;;;;;;5.18;3.00;;;;;;;9.14;64.86;98582.56;4923500;29;20109;-79
2023/12/06 02:12:56;;;;;;;5.35;3.05;;;;;;;9.20;64.57;98586.50;4922659;29;20062;-81
2023/12/06 02:15:21;;;;;;;5.28;3.33;;;;;;;9.19;64.86;98577.84;4954833;29;20478;-80
2023/12/06 02:17:48;;;;;;;5.35;2.92;;;;;;;9.21;64.77;98581.16;4938714;29;20031;-80
2023/12/06 02:20:13;;;;;;;6.07;3.25;;;;;;;9.15;64.80;98576.41;4922567;29;20047;-80
2023/12/06 02:22:39;;;;;;;7.10;3.33;;;;;;;9.20;64.70;98581.28;4937842;29;20031;-80
2023/12/06 02:25:09;;;;;;;7.25;3.13;;;;;;;9.18;64.66;98581.41;4922608;29;20439;-81
2023/12/06 02:27:34;;;;;;;7.50;3.22;;;;;;;9.19;64.79;98575.25;4939062;29;20062;-79
2023/12/06 02:30:00;;;;;;;6.38;3.03;;;;;;;9.21;64.81;98581.16;4954461;29;20069;-79
2023/12/06 02:32:25;;;;;;;5.55;3.45;;;;;;;9.15;64.87;98571.19;4954125;29;20035;-80
2023/12/06 02:34:51;;;;;;;7.32;3.47;;;;;;;9.19;64.60;98580.47;4938645;29;20039;-79
2023/12/06 02:37:16;;;;;;;5.32;3.58;;;;;;;9.18;64.67;98575.38;4922146;29;20031;-79
2023/12/06 02:39:42;;;;;;;9.63;3.35;;;;;;;9.19;64.78;98577.03;4922168;29;20038;-81
2023/12/06 02:42:08;;;;;;;10.00;3.47;;;;;;;9.16;64.90;98569.44;4922356;29;20030;-80
2023/12/06 02:44:34;;;;;;;7.82;3.30;;;;;;;9.21;64.77;98575.16;4922614;29;20050;-79
2023/12/06 02:46:59;;;;;;;6.55;3.55;;;;;;;9.20;64.97;98573.47;4937921;29;20035;-81
2023/12/06 02:49:25;;;;;;;7.38;3.88;;;;;;;9.20;64.74;98568.25;4922294;29;20035;-81
2023/12/06 02:51:50;;;;;;;6.50;3.30;;;;;;;9.20;64.55;98563.06;4937882;29;20431;-81
2023/12/06 02:54:16;;;;;;;7.38;3.60;;;;;;;9.21;64.58;98564.72;4922641;29;20053;-80
2023/12/06 02:56:41;;;;;;;9.70;4.35;;;;;;;9.17;64.86;98561.53;4954101;29;20153;-78
2023/12/06 02:59:07;;;;;;;8.95;4.28;;;;;;;9.22;64.46;98562.00;4937876;29;20415;-80
2023/12/06 03:01:32;;;;;;;7.50;3.60;;;;;;;9.17;64.81;98550.25;4953740;28;20114;-80
2023/12/06 03:03:58;;;;;;;10.77;4.03;;;;;;;9.18;64.69;98547.53;4954079;29;20074;-81
2023/12/06 03:06:23;;;;;;;5.90;3.58;;;;;;;9.22;64.92;98549.00;4937840;29;20031;-80
2023/12/06 03:08:49;;;;;;;7.20;3.95;;;;;;;9.22;64.66;98541.16;4954046;29;20127;-80
2023/12/06 03:11:14;;;;;;;9.10;4.05;;;;;;;9.22;64.71;98542.97;4953622;29;20042;-81
2023/12/06 03:13:40;;;;;;;9.75;3.60;;;;;;;9.23;64.83;98550.66;4921976;29;20046;-80
2023/12/06 03:16:06;;;;;;;7.05;3.78;;;;;;;9.21;64.79;98543.88;4922224;29;20562;-79
2023/12/06 03:18:31;;;;;;;6.47;3.75;;;;;;;9.22;64.68;98548.16;4937383;29;20035;-80
2023/12/06 03:20:57;;;;;;;7.22;3.63;;;;;;;9.22;64.71;98548.16;4953631;29;20066;-79
2023/12/06 03:23:22;;;;;;;9.40;3.88;;;;;;;9.18;64.54;98533.69;4937737;29;20531;-80
2023/12/06 03:25:48;;;;;;;9.13;4.20;;;;;;;9.20;64.97;98537.00;4937321;29;20082;-80
2023/12/06 03:28:13;;;;;;;7.53;3.90;;;;;;;9.21;64.68;98541.28;4937686;29;20490;-80
2023/12/06 03:30:39;;;;;;;7.93;4.03;;;;;;;9.20;64.66;98535.25;4937665;29;20043;-79
2023/12/06 03:33:04;;;;;;;6.88;3.72;;;;;;;9.17;64.81;98538.09;4921084;29;20039;-81
2023/12/06 03:35:30;;;;;;;8.45;4.07;;;;;;;9.17;64.60;98537.22;4952131;28;20045;-80
2023/12/06 03:37:55;;;;;;;7.65;3.85;;;;;;;9.21;64.72;98549.09;4953705;29;20147;-80
2023/12/06 03:40:21;;;;;;;7.13;3.72;;;;;;;9.17;64.49;98545.03;4969804;28;20042;-80
2023/12/06 03:42:46;;;;;;;8.73;4.10;;;;;;;9.18;64.84;98551.94;4937361;29;20035;-80
2023/12/06 03:45:12;;;;;;;7.20;3.72;;;;;;;9.18;64.79;98544.94;4950728;29;20067;-80
2023/12/06 03:47:38;;;;;;;6.10;3.28;;;;;;;9.19;64.83;98543.19;4953700;28;20043;-80
2023/12/06 03:50:05;;;;;;;10.50;3.53;;;;;;;9.16;64.56;98543.41;4969148;28;20035;-79
2023/12/06 03:52:30;;;;;;;7.72;3.30;;;;;;;9.19;64.70;98544.00;4953383;28;20043;-80
2023/12/06 03:54:56;;;;;;;5.95;3.88;;;;;;;9.17;64.62;98545.91;4937024;29;20058;-80
2023/12/06 03:57:21;;;;;;;6.60;3.58;;;;;;;9.16;64.44;98538.19;4953335;29;20071;-79
2023/12/06 03:59:47;;;;;;;9.80;3.55;;;;;;;9.21;64.59;98549.91;4952818;28;20109;-80
2023/12/06 04:02:13;;;;;;;7.20;3.97;;;;;;;9.19;64.43;98553.59;4953254;28;20043;-80
2023/12/06 04:04:39;;;;;;;7.28;3.70;;;;;;;9.20;64.58;98550.88;4937258;29;20055;-79
2023/12/06 04:07:04;;;;;;;8.50;3.85;;;;;;;9.15;64.65;98547.75;4953994;28;20031;-80
2023/12/06 04:09:30;;;;;;;10.90;4.25;;;;;;;9.16;64.73;98543.41;4969369;28;20114;-81
2023/12/06 04:11:55;;;;;;;5.97;3.67;;;;;;;9.18;64.51;98549.31;4952877;28;20038;-80
2023/12/06 04:14:21;;;;;;;7.10;3.72;;;;;;;9.19;64.31;98551.81;4953195;28;20047;-81
2023/12/06 04:16:49;;;;;;;7.63;3.90;;;;;;;9.19;64.53;98553.59;4937095;29;20038;-79
2023/12/06 04:19:15;;;;;;;8.20;4.13;;;;;;;9.17;64.69;98538.09;4968866;28;20102;-80
2023/12/06 04:21:40;;;;;;;8.80;4.15;;;;;;;9.21;64.43;98549.09;4952677;29;20496;-79
2023/12/06 04:24:06;;;;;;;7.93;3.80;;;;;;;9.20;64.65;98542.22;4968921;28;20471;-80
2023/12/06 04:26:31;;;;;;;7.13;4.18;;;;;;;9.20;64.55;98543.06;4968736;28;20035;-81
2023/12/06 04:28:57;;;;;;;9.32;4.25;;;;;;;9.18;64.30;98539.72;4937193;29;20518;-81
2023/12/06 04:31:22;;;;;;;7.85;4.60;;;;;;;9.18;64.41;98541.50;4968648;28;20035;-79
2023/12/06 04:33:48;;;;;;;9.00;4.25;;;;;;;9.15;64.61;98541.72;4952644;28;20036;-82
2023/12/06 04:36:13;;;;;;;8.15;4.57;;;;;;;9.17;64.61;98542.44;4936710;29;20039;-83
2023/12/06 04:38:39;;;;;;;9.82;4.72;;;;;;;9.18;64.80;98536.31;4952140;29;20055;-84
2023/12/06 04:41:05;;;;;;;8.23;3.67;;;;;;;9.37;70.33;98535.75;4953789;28;20042;-86
2023/12/06 04:43:30;;;;;;;8.75;4.00;;;;;;;9.36;69.38;98523.66;4969280;28;20534;-88
2023/12/06 04:45:55;;;;;;;10.85;4.20;;;;;;;9.35;68.19;98529.84;4936682;28;20954;-86
2023/12/06 04:48:22;;;;;;;7.93;4.22;;;;;;;9.37;67.48;98535.75;4991763;28;20137;-83
2023/12/06 04:50:47;;;;;;;8.77;4.63;;;;;;;9.35;67.28;98538.47;4966823;28;20473;-84
2023/12/06 04:53:13;;;;;;;11.05;5.20;;;;;;;9.34;67.28;98539.41;4972895;28;20078;-88
2023/12/06 04:55:38;;;;;;;12.27;5.38;;;;;;;9.35;66.87;98535.06;4939746;29;20058;-87
2023/12/06 04:58:04;;;;;;;10.27;5.45;;;;;;;9.30;66.67;98522.38;4957270;28;20043;-82
2023/12/06 05:00:29;;;;;;;9.40;5.63;;;;;;;9.30;66.41;98527.59;4980042;28;20067;-78
2023/12/06 05:02:55;;;;;;;8.73;5.47;;;;;;;9.29;66.23;98525.09;4956866;28;20082;-86
2023/12/06 05:05:20;;;;;;;10.77;5.63;;;;;;;9.29;66.50;98522.50;4939465;29;20067;-79
2023/12/06 05:07:46;;;;;;;8.32;4.93;;;;;;;9.28;66.29;98529.44;4938078;29;20070;-79
2023/12/06 05:10:11;;;;;;;12.68;5.18;;;;;;;9.26;66.30;98522.72;4954008;29;20430;-79
2023/12/06 05:12:37;;;;;;;11.07;5.55;;;;;;;9.26;66.01;98517.50;4959545;28;20043;-76
2023/12/06 05:15:03;;;;;;;10.85;5.50;;;;;;;9.45;70.54;98523.00;4966303;29;20047;-78
2023/12/06 05:17:29;;;;;;;10.40;4.47;;;;;;;9.64;72.06;98527.66;4955581;28;20031;-79
2023/12/06 05:19:55;;;;;;;8.32;4.88;;;;;;;9.65;70.78;98526.72;4983719;28;20029;-92
2023/12/06 05:22:20;;;;;;;28.65;5.22;;;;;;;9.62;69.90;98520.91;4986585;28;20042;-93
2023/12/06 05:24:46;;;;;;;9.63;5.10;;;;;;;9.62;69.25;98526.13;5145412;23;20105;-93
2023/12/06 05:29:46;;;;;;;11.88;5.25;;;;;;;9.52;68.55;98513.78;5166943;23;19929;-90
2023/12/06 05:32:12;;;;;;;9.82;5.13;;;;;;;9.52;68.31;98512.94;4990715;28;20506;-90
2023/12/06 05:34:37;;;;;;;9.10;5.38;;;;;;;9.52;68.10;98512.94;4953275;28;20046;-89
2023/12/06 05:37:03;;;;;;;11.60;5.47;;;;;;;9.53;67.52;98522.41;4955885;29;20078;-87
2023/12/06 05:39:31;;;;;;;13.52;6.13;;;;;;;9.50;67.78;98520.88;4986105;28;20038;-88
2023/12/06 05:41:56;;;;;;;12.73;5.80;;;;;;;9.51;67.84;98527.75;4982018;28;20035;-89
2023/12/06 05:44:22;;;;;;;11.32;5.80;;;;;;;9.47;67.42;98522.88;4977841;28;20105;-89
2023/12/06 05:46:48;;;;;;;8.25;5.50;;;;;;;9.48;67.12;98530.56;4992490;28;20494;-85
2023/12/06 05:49:14;;;;;;;12.30;5.80;;;;;;;9.48;67.20;98527.16;4975552;28;20042;-79
2023/12/06 05:51:40;;;;;;;10.80;5.90;;;;;;;9.49;67.01;98531.41;4960537;28;20109;-83
2023/12/06 05:54:05;;;;;;;10.32;5.57;;;;;;;9.49;67.13;98531.41;4961370;28;20474;-81
2023/12/06 05:56:30;;;;;;;14.30;6.20;;;;;;;9.49;66.63;98536.59;4975503;28;20105;-84
2023/12/06 05:58:56;;;;;;;11.68;5.95;;;;;;;9.44;66.82;98526.56;4957463;28;20038;-82
2023/12/06 06:01:22;;;;;;;12.20;6.07;;;;;;;9.51;66.65;98537.34;4957782;28;20023;-82
2023/12/06 06:03:48;;;;;;;11.80;6.45;;;;;;;9.51;66.53;98542.56;4974343;28;20118;-83
2023/12/06 06:06:13;;;;;;;9.82;6.35;;;;;;;9.50;66.26;98539.09;4975070;28;20022;-83
2023/12/06 06:08:39;;;;;;;13.98;6.68;;;;;;;9.51;66.63;98542.56;4957988;28;20043;-82
2023/12/06 06:11:05;;;;;;;12.23;6.43;;;;;;;9.50;66.39;98540.88;4990189;28;20034;-83
2023/12/06 06:13:30;;;;;;;12.13;6.97;;;;;;;9.48;66.53;98533.19;4990744;28;20459;-86
2023/12/06 06:15:56;;;;;;;11.70;6.45;;;;;;;9.50;66.26;98538.28;4959383;28;20033;-83
2023/12/06 06:18:22;;;;;;;14.02;6.95;;;;;;;9.46;66.41;98529.06;4989795;28;20478;-83
2023/12/06 06:20:49;;;;;;;11.98;7.05;;;;;;;9.52;66.36;98533.78;4974053;28;20130;-84
2023/12/06 06:23:14;;;;;;;12.13;7.55;;;;;;;9.51;66.07;98538.16;4989652;28;20058;-83
2023/12/06 06:25:40;;;;;;;13.57;7.45;;;;;;;9.52;66.00;98538.97;4973980;28;20073;-84
2023/12/06 06:28:07;;;;;;;13.45;6.90;;;;;;;9.52;66.18;98539.84;4974061;28;20039;-85
2023/12/06 06:30:33;;;;;;;13.07;7.20;;;;;;;9.53;66.12;98549.28;4973307;28;20054;-82
2023/12/06 06:32:58;;;;;;;12.50;6.97;;;;;;;9.56;65.91;98545.63;4957198;28;20521;-82
2023/12/06 06:35:24;;;;;;;13.25;7.13;;;;;;;9.56;66.13;98554.28;4973725;28;20038;-81
2023/12/06 06:37:49;;;;;;;12.93;6.90;;;;;;;9.55;65.77;98544.81;4957069;28;20034;-79
2023/12/06 06:40:15;;;;;;;13.27;7.85;;;;;;;9.53;65.75;98544.09;4989393;28;20446;-79
2023/12/06 06:42:41;;;;;;;13.85;7.22;;;;;;;9.57;65.46;98553.34;4973190;28;20039;-79
2023/12/06 06:45:08;;;;;;;12.73;7.22;;;;;;;9.56;65.64;98550.84;4988694;28;20078;-79
2023/12/06 06:47:34;;;;;;;13.30;6.57;;;;;;;9.52;65.52;98545.03;4972682;28;20085;-83
2023/12/06 06:50:00;;;;;;;12.43;7.03;;;;;;;9.54;65.46;98544.94;4973921;28;20118;-83
2023/12/06 06:52:26;;;;;;;12.25;7.07;;;;;;;9.59;65.57;98551.44;4974850;28;20057;-84
2023/12/06 06:54:52;;;;;;;11.23;7.22;;;;;;;9.60;65.63;98553.13;4990547;28;20041;-81
2023/12/06 06:57:18;;;;;;;11.23;7.32;;;;;;;9.57;65.58;98545.53;4973483;28;20035;-82
2023/12/06 06:59:43;;;;;;;13.52;7.55;;;;;;;9.63;65.49;98552.06;4972982;28;20026;-81
2023/12/06 07:02:10;;;;;;;14.52;7.80;;;;;;;9.58;65.26;98541.97;4972771;28;20031;-81
2023/12/06 07:04:36;;;;;;;12.73;7.90;;;;;;;9.66;65.42;98546.63;4990914;28;20519;-85
2023/12/06 07:07:03;;;;;;;14.02;6.68;;;;;;;9.67;65.12;98543.06;4991387;28;20031;-85
2023/12/06 07:09:29;;;;;;;14.15;7.50;;;;;;;9.66;65.25;98543.16;4988463;28;20173;-81
2023/12/06 07:11:55;;;;;;;12.43;7.95;;;;;;;9.69;64.98;98543.75;4973914;28;20046;-82
2023/12/06 07:14:21;;;;;;;13.00;7.55;;;;;;;9.66;65.23;98540.56;4972565;28;20572;-81
2023/12/06 07:16:46;;;;;;;14.60;7.50;;;;;;;9.65;65.28;98544.13;4989033;28;20059;-82
2023/12/06 07:19:12;;;;;;;15.00;7.82;;;;;;;9.60;64.99;98532.28;4989430;28;20030;-84
2023/12/06 07:21:38;;;;;;;12.15;7.55;;;;;;;9.63;65.13;98540.78;4989124;28;20058;-84
2023/12/06 07:24:04;;;;;;;15.95;8.15;;;;;;;9.62;65.15;98537.38;4989124;28;20475;-82
2023/12/06 07:26:29;;;;;;;14.60;8.57;;;;;;;9.67;65.15;98543.06;4988678;28;20154;-80
2023/12/06 07:28:55;;;;;;;13.52;7.88;;;;;;;9.66;65.10;98535.34;4988531;28;20054;-80
2023/12/06 07:31:20;;;;;;;20.05;8.48;;;;;;;9.62;65.00;98532.16;4956205;28;20426;-78
2023/12/06 07:33:49;;;;;;;15.13;8.00;;;;;;;9.64;64.79;98532.84;4972318;28;20035;-81
2023/12/06 07:36:14;;;;;;;14.10;7.90;;;;;;;9.66;65.13;98538.81;4972586;28;20057;-81
2023/12/06 07:38:40;;;;;;;17.17;8.65;;;;;;;9.62;65.22;98534.75;4988512;28;20482;-79
2023/12/06 07:41:05;;;;;;;14.95;8.35;;;;;;;9.64;65.10;98540.66;4956577;28;20109;-83
2023/12/06 07:43:31;;;;;;;17.75;8.60;;;;;;;9.59;65.04;98532.38;4990780;28;20089;-83
2023/12/06 07:45:56;;;;;;;18.48;9.00;;;;;;;9.60;65.12;98529.66;4989356;28;20470;-85
2023/12/06 07:48:22;;;;;;;14.10;8.40;;;;;;;9.66;64.99;98540.56;4992546;28;20046;-86
2023/12/06 07:50:50;;;;;;;13.70;7.95;;;;;;;9.66;65.04;98541.41;4980436;28;20065;-85
2023/12/06 07:53:15;;;;;;;15.25;8.23;;;;;;;9.64;64.85;98538.06;4990431;28;20038;-85
2023/12/06 07:55:42;;;;;;;16.05;9.10;;;;;;;9.66;65.00;98538.81;4974203;28;20410;-85
2023/12/06 07:58:08;;;;;;;15.75;8.43;;;;;;;9.65;64.95;98533.72;4972452;28;20030;-86
2023/12/06 08:00:33;;;;;;;17.13;8.30;;;;;;;9.68;64.85;98544.72;4972970;28;20545;-83
2023/12/06 08:02:59;;;;;;;13.43;8.02;;;;;;;9.68;64.78;98539.50;4989547;28;20027;-80
2023/12/06 08:05:24;;;;;;;13.35;7.70;;;;;;;9.64;64.66;98529.44;4972069;28;20082;-82
2023/12/06 08:07:50;;;;;;;14.70;8.25;;;;;;;9.72;64.72;98540.09;4988791;28;20108;-81
2023/12/06 08:10:19;;;;;;;15.38;8.20;;;;;;;9.73;64.55;98537.38;4972621;28;20042;-80
2023/12/06 08:12:45;;;;;;;14.27;7.97;;;;;;;9.74;64.67;98538.19;4988684;28;20039;-81
2023/12/06 08:15:10;;;;;;;15.65;8.35;;;;;;;9.72;64.65;98527.88;4972305;28;20255;-81
2023/12/06 08:17:36;;;;;;;15.25;8.52;;;;;;;9.74;64.71;98528.63;4988261;28;20046;-82
2023/12/06 08:20:01;;;;;;;13.32;7.60;;;;;;;9.80;64.45;98529.09;4988792;28;20031;-83
2023/12/06 08:22:27;;;;;;;16.90;7.80;;;;;;;9.84;64.50;98531.34;4974553;28;20058;-81
2023/12/06 08:24:56;;;;;;;12.32;7.28;;;;;;;9.87;64.32;98522.47;4992001;28;20031;-82
2023/12/06 08:27:28;;;;;;;13.43;7.30;;;;;;;9.86;64.26;98512.97;4991540;28;20027;-85
2023/12/06 08:29:55;;;;;;;11.23;6.53;;;;;;;9.93;64.07;98522.81;4976055;28;20066;-82
2023/12/06 08:32:20;;;;;;;14.38;6.75;;;;;;;9.97;64.14;98523.41;4993561;28;20042;-82
2023/12/06 08:34:46;;;;;;;9.88;5.90;;;;;;;9.99;64.02;98520.69;4978940;28;20038;-82
2023/12/06 08:37:11;;;;;;;11.45;6.88;;;;;;;9.99;64.14;98525.91;4995984;28;20038;-83
2023/12/06 08:39:37;;;;;;;11.23;6.70;;;;;;;10.01;63.98;98516.16;4979006;28;20081;-82
2023/12/06 08:42:02;;;;;;;10.45;6.13;;;;;;;10.01;63.94;98513.56;4977789;28;20038;-81
2023/12/06 08:44:28;;;;;;;10.27;6.53;;;;;;;10.08;63.80;98518.19;4993387;28;20030;-86
2023/12/06 08:46:53;;;;;;;10.23;5.93;;;;;;;10.09;63.71;98522.47;4977599;28;20506;-84
2023/12/06 08:49:19;;;;;;;10.52;5.65;;;;;;;10.08;63.83;98525.19;4992095;28;20479;-83
2023/12/06 08:51:45;;;;;;;9.88;5.75;;;;;;;10.10;63.64;98520.69;4991789;28;20035;-82
2023/12/06 08:54:10;;;;;;;10.35;5.47;;;;;;;10.06;63.74;98516.66;4992060;28;20062;-82
2023/12/06 08:56:36;;;;;;;9.85;5.65;;;;;;;10.06;63.62;98519.28;4959107;28;20037;-81
2023/12/06 08:59:02;;;;;;;12.10;4.90;;;;;;;10.09;63.69;98517.25;4976718;28;20057;-83
2023/12/06 09:01:27;;;;;;;10.27;5.10;;;;;;;10.08;63.75;98509.53;4976017;28;20077;-86
2023/12/06 09:03:53;;;;;;;10.07;5.25;;;;;;;10.09;63.43;98519.84;4992607;28;20060;-83
2023/12/06 09:06:18;;;;;;;6.43;4.57;;;;;;;10.09;63.40;98512.03;4992322;28;20035;-88
2023/12/06 09:08:44;;;;;;;9.85;5.40;;;;;;;10.11;63.58;98511.91;4993664;28;20034;-88
2023/12/06 09:11:09;;;;;;;10.55;5.18;;;;;;;10.13;63.59;98502.19;4978349;28;20491;-83
2023/12/06 09:13:35;;;;;;;8.43;4.85;;;;;;;10.12;63.38;98500.50;4978980;28;20489;-86
2023/12/06 09:16:00;;;;;;;9.77;4.70;;;;;;;10.13;63.35;98494.34;4977458;28;20033;-85
2023/12/06 09:18:26;;;;;;;8.52;4.75;;;;;;;10.12;63.08;98488.31;4992835;28;20058;-90
2023/12/06 09:20:52;;;;;;;10.43;4.80;;;;;;;10.12;63.10;98490.09;4961707;28;20042;-87
2023/12/06 09:23:17;;;;;;;7.28;4.07;;;;;;;10.13;63.08;98483.94;4960975;28;20062;-88
2023/12/06 09:25:43;;;;;;;6.40;3.97;;;;;;;10.17;63.05;98487.97;4990940;28;20031;-81
2023/12/06 09:28:08;;;;;;;8.25;4.55;;;;;;;10.14;63.34;98464.72;4958908;28;20062;-80
2023/12/06 09:30:34;;;;;;;7.15;4.07;;;;;;;10.18;62.76;98462.69;4974750;28;20137;-81
2023/12/06 09:32:59;;;;;;;9.82;4.45;;;;;;;10.20;62.93;98461.63;4990792;28;20441;-80
2023/12/06 09:35:25;;;;;;;8.20;4.20;;;;;;;10.30;62.51;98457.34;4975361;28;20469;-80
2023/12/06 09:37:50;;;;;;;7.82;4.05;;;;;;;10.31;62.59;98458.19;4975197;28;20074;-80
2023/12/06 09:40:16;;;;;;;5.78;3.72;;;;;;;10.38;62.43;98464.59;4990266;28;20054;-81
2023/12/06 09:42:43;;;;;;;6.53;3.80;;;;;;;10.37;62.31;98462.09;4990968;28;20062;-81
2023/12/06 09:45:09;;;;;;;7.05;3.88;;;;;;;10.38;62.72;98453.31;4974676;28;20054;-80
2023/12/06 09:47:34;;;;;;;6.18;3.55;;;;;;;10.26;62.69;98436.81;4990673;28;20030;-83
2023/12/06 09:50:00;;;;;;;5.72;3.60;;;;;;;10.38;62.50;98446.31;4958424;28;20042;-80
2023/12/06 09:52:25;;;;;;;5.78;3.67;;;;;;;10.38;62.32;98443.72;4990531;28;20046;-82
2023/12/06 09:54:51;;;;;;;5.68;3.63;;;;;;;10.40;62.49;98444.41;4958608;28;20073;-80
2023/12/06 09:57:16;;;;;;;8.45;3.75;;;;;;;10.42;62.25;98447.75;4990167;28;20575;-81
2023/12/06 09:59:42;;;;;;;6.22;3.55;;;;;;;10.40;61.99;98438.38;4973878;28;20062;-80
2023/12/06 10:02:07;;;;;;;5.68;3.45;;;;;;;10.43;62.12;98443.34;4990154;28;20130;-80
2023/12/06 10:04:34;;;;;;;4.88;3.13;;;;;;;10.47;61.92;98442.97;4974021;28;20109;-81
2023/12/06 10:07:00;;;;;;;7.65;3.38;;;;;;;10.46;61.92;98430.06;4990400;28;20108;-83
2023/12/06 10:09:25;;;;;;;9.30;3.50;;;;;;;10.47;61.84;98427.31;4989988;28;20471;-82
2023/12/06 10:11:51;;;;;;;4.82;2.97;;;;;;;10.53;61.92;98433.84;4990880;28;20122;-82
2023/12/06 10:14:20;;;;;;;6.57;3.28;;;;;;;10.54;61.92;98427.66;4989726;28;20467;-80
2023/12/06 10:16:46;;;;;;;6.18;3.47;;;;;;;10.53;61.70;98431.22;4957868;28;20066;-79
2023/12/06 10:19:19;;;;;;;6.82;3.40;;;;;;;10.52;62.18;98431.34;4989908;28;20506;-80
2023/12/06 10:21:46;;;;;;;7.53;3.38;;;;;;;10.48;62.13;98423.78;4989113;28;20033;-79
2023/12/06 10:24:12;;;;;;;6.32;3.40;;;;;;;10.52;62.18;98421.72;4974195;28;20790;-79
2023/12/06 10:26:37;;;;;;;4.80;2.78;;;;;;;10.48;61.95;98413.31;4973421;28;20046;-78
2023/12/06 10:29:04;;;;;;;5.70;3.35;;;;;;;10.56;62.26;98407.47;4973507;28;20110;-80
2023/12/06 10:31:42;;;;;;;7.45;3.55;;;;;;;10.50;61.90;98393.16;4989157;28;20054;-79
2023/12/06 10:34:07;;;;;;;8.13;3.15;;;;;;;10.57;61.81;98403.09;4973380;28;20027;-81
2023/12/06 10:36:33;;;;;;;7.35;3.00;;;;;;;10.53;61.89;98397.28;4956461;28;20220;-79
2023/12/06 10:38:58;;;;;;;7.20;3.20;;;;;;;10.57;61.81;98400.47;4989041;28;20125;-81
2023/12/06 10:41:25;;;;;;;6.75;3.38;;;;;;;10.57;61.79;98384.81;4973623;28;20125;-83
2023/12/06 10:43:51;;;;;;;5.65;3.10;;;;;;;10.61;61.81;98384.44;4988461;28;20066;-79
2023/12/06 10:46:17;;;;;;;9.43;3.40;;;;;;;10.66;61.84;98379.66;4957707;28;20039;-79
2023/12/06 10:48:43;;;;;;;5.38;3.17;;;;;;;10.69;61.73;98378.59;4989418;28;20394;-80
2023/12/06 10:51:09;;;;;;;9.95;3.42;;;;;;;10.70;61.55;98379.41;4989332;28;20039;-80
2023/12/06 10:53:34;;;;;;;4.95;2.90;;;;;;;10.73;61.21;98387.00;4989009;28;20046;-78
2023/12/06 10:56:01;;;;;;;5.40;3.20;;;;;;;10.72;61.56;98378.34;4973394;28;20035;-79
2023/12/06 10:58:27;;;;;;;6.38;2.80;;;;;;;10.71;61.54;98375.88;4988953;28;20066;-80
2023/12/06 11:00:53;;;;;;;6.70;2.80;;;;;;;10.74;61.19;98378.22;4973166;28;20478;-78
2023/12/06 11:03:18;;;;;;;4.78;2.67;;;;;;;10.74;61.34;98375.59;4972832;28;20030;-80
2023/12/06 11:05:46;;;;;;;6.20;2.85;;;;;;;10.72;61.09;98370.50;4972598;28;20349;-79
2023/12/06 11:08:31;;;;;;;7.00;3.17;;;;;;;10.73;61.31;98368.72;4988927;28;20045;-80
2023/12/06 11:11:15;;;;;;;5.00;2.85;;;;;;;10.71;61.32;98371.47;4988856;28;20038;-80
2023/12/06 11:13:46;;;;;;;5.70;2.80;;;;;;;10.71;61.28;98371.47;4974039;28;20030;-80
2023/12/06 11:16:51;;;;;;;4.85;2.50;;;;;;;10.68;61.59;98367.31;4972659;28;20041;-81
2023/12/06 11:19:16;;;;;;;5.43;2.42;;;;;;;10.67;60.97;98360.44;4973828;28;20106;-80
2023/12/06 11:21:41;;;;;;;3.95;2.58;;;;;;;10.67;61.57;98370.03;4972641;28;20061;-79
2023/12/06 11:24:08;;;;;;;6.30;2.53;;;;;;;10.68;61.49;98366.50;4973774;28;20116;-81
2023/12/06 11:26:33;;;;;;;8.82;3.15;;;;;;;10.70;61.32;98368.97;4988668;28;20494;-78
2023/12/06 11:28:59;;;;;;;4.80;2.72;;;;;;;10.68;60.92;98366.50;4956672;28;20062;-78
2023/12/06 11:31:32;;;;;;;5.75;2.63;;;;;;;10.67;61.21;98360.44;4988417;28;20054;-79
2023/12/06 11:33:59;;;;;;;5.75;2.88;;;;;;;10.65;61.00;98362.34;4973944;28;20022;-85